Avenel, New Jersey
Current Conditions -  °F | °C
As of 8:15 AM on Thursday 30 Oct 2014 (Local Time) from KLDJ Reporting Station
Haze Haze  
Wind Chill: 48°   Ceiling: Unl
Heat Index: 48°   Visibility: 4mi
Dew Point: 47°   Wind: 3mph
Humidity: 97%   Direction: 290°WNW
Pressure: 30.01"   Gusts: NA
Location:  40.58°N, 74.28°W
Report Text: KLDJ 301215Z AUTO 29003KT 4SM BR CLR 09/09 A3001 RMK AO2 T00900086
Loading
Personal Weather Stations






























Interactive Weather Map
Tropical Storm Tracking
New forecast layout! Learn more

10-Day Weather Forecast

Advertisements
Track Severe Weather on mobile